createdAt,value
2023-02-25T00:00:43.959Z,3.7
2023-02-25T00:01:33.848Z,3.7
2023-02-25T00:02:44.068Z,3.6
2023-02-25T00:03:33.945Z,3.6
2023-02-25T00:04:44.196Z,3.7
2023-02-25T00:05:34.032Z,3.6
2023-02-25T00:06:44.602Z,3.7
2023-02-25T00:07:37.244Z,3.7
2023-02-25T00:08:43.827Z,3.6
2023-02-25T00:09:34.268Z,3.6
2023-02-25T00:10:43.694Z,3.6
2023-02-25T00:11:34.370Z,3.7
2023-02-25T00:12:44.942Z,3.7
2023-02-25T00:13:34.427Z,3.7
2023-02-25T00:14:45.842Z,3.7
2023-02-25T00:15:34.552Z,3.7
2023-02-25T00:16:45.062Z,3.7
2023-02-25T00:17:34.992Z,3.6
2023-02-25T00:18:47.432Z,3.6
2023-02-25T00:19:34.774Z,3.6
2023-02-25T00:20:47.620Z,3.6
2023-02-25T00:21:34.868Z,3.6
2023-02-25T00:22:47.382Z,3.6
2023-02-25T00:23:34.976Z,3.6
2023-02-25T00:24:48.554Z,3.6
2023-02-25T00:25:35.088Z,3.7
2023-02-25T00:26:51.807Z,3.7
2023-02-25T00:27:43.586Z,3.7
2023-02-25T00:28:48.688Z,3.6
2023-02-25T00:29:35.311Z,3.5
2023-02-25T00:30:50.207Z,3.6
2023-02-25T00:31:35.561Z,3.6
2023-02-25T00:32:49.568Z,3.6
2023-02-25T00:33:35.566Z,3.8
2023-02-25T00:34:52.058Z,3.7
2023-02-25T00:35:35.718Z,3.7
2023-02-25T00:36:51.033Z,3.7
2023-02-25T00:37:36.988Z,3.5
2023-02-25T00:38:52.605Z,3.5
2023-02-25T00:39:35.932Z,3.6
2023-02-25T00:40:50.991Z,3.5
2023-02-25T00:41:36.024Z,3.6
2023-02-25T00:42:51.378Z,3.5
2023-02-25T00:43:36.131Z,3.6
2023-02-25T00:44:51.479Z,3.6
2023-02-25T00:45:36.232Z,3.6
2023-02-25T00:46:51.611Z,3.5
2023-02-25T00:47:45.168Z,3.6
2023-02-25T00:48:51.384Z,3.5
2023-02-25T00:49:36.520Z,3.4
2023-02-25T00:50:51.690Z,3.4
2023-02-25T00:51:36.600Z,3.4
2023-02-25T00:52:52.072Z,3.4
2023-02-25T00:53:36.705Z,3.4
2023-02-25T00:54:51.548Z,3.4
2023-02-25T00:55:36.823Z,3.4
2023-02-25T00:56:52.348Z,3.5
2023-02-25T00:57:39.558Z,3.5
2023-02-25T00:58:55.211Z,3.5
2023-02-25T00:59:37.054Z,3.5
2023-02-25T01:00:57.926Z,3.5
2023-02-25T01:01:37.164Z,3.4
2023-02-25T01:02:57.715Z,3.4
2023-02-25T01:03:43.297Z,3.5
2023-02-25T01:04:57.980Z,3.6
2023-02-25T01:05:39.851Z,3.5
2023-02-25T01:06:57.539Z,3.5
2023-02-25T01:07:41.562Z,3.5
2023-02-25T01:08:57.284Z,3.4
2023-02-25T01:09:41.542Z,3.5
2023-02-25T01:10:57.666Z,3.5
2023-02-25T01:11:41.576Z,3.5
2023-02-25T01:12:57.625Z,3.4
2023-02-25T01:13:41.603Z,3.4
2023-02-25T01:14:59.401Z,3.5
2023-02-25T01:15:41.544Z,3.5
2023-02-25T01:16:57.575Z,3.6
2023-02-25T01:17:39.330Z,3.6
2023-02-25T01:18:57.395Z,3.5
2023-02-25T01:19:38.231Z,3.6
2023-02-25T01:20:59.635Z,3.5
2023-02-25T01:21:38.325Z,3.5
2023-02-25T01:22:58.055Z,3.5
2023-02-25T01:23:38.430Z,3.4
2023-02-25T01:24:59.079Z,3.5
2023-02-25T01:25:38.556Z,3.6
2023-02-25T01:26:58.412Z,3.6
2023-02-25T01:27:46.008Z,3.5
2023-02-25T01:28:59.714Z,3.5
2023-02-25T01:29:38.753Z,3.5
2023-02-25T01:30:58.991Z,3.5
2023-02-25T01:31:39.122Z,3.6
2023-02-25T01:32:59.315Z,3.6
2023-02-25T01:33:39.008Z,3.6
2023-02-25T01:34:59.202Z,3.6
2023-02-25T01:35:39.092Z,3.6
2023-02-25T01:36:58.930Z,3.6
2023-02-25T01:37:48.976Z,3.6
2023-02-25T01:38:59.889Z,3.6
2023-02-25T01:39:39.308Z,3.5
2023-02-25T01:40:59.059Z,3.6
2023-02-25T01:41:39.421Z,3.6
2023-02-25T01:42:58.849Z,3.5
2023-02-25T01:43:39.642Z,3.5
2023-02-25T01:44:58.958Z,3.6
2023-02-25T01:45:39.729Z,3.6
2023-02-25T01:46:59.146Z,3.6
2023-02-25T01:47:47.488Z,3.5
2023-02-25T01:48:58.799Z,3.5
2023-02-25T01:49:39.978Z,3.4
2023-02-25T01:50:59.005Z,3.5
2023-02-25T01:51:40.076Z,3.4
2023-02-25T01:53:00.874Z,3.5
2023-02-25T01:53:40.179Z,3.5
2023-02-25T01:54:58.944Z,3.5
2023-02-25T01:55:40.316Z,3.5
2023-02-25T01:56:59.721Z,3.5
2023-02-25T01:57:44.722Z,3.5
2023-02-25T01:58:58.851Z,3.5
2023-02-25T01:59:40.529Z,3.5
2023-02-25T02:00:58.941Z,3.5
2023-02-25T02:01:40.651Z,3.5
2023-02-25T02:02:59.262Z,3.6
2023-02-25T02:03:40.771Z,3.5
2023-02-25T02:04:58.928Z,3.4
2023-02-25T02:05:40.855Z,3.5
2023-02-25T02:07:00.618Z,3.6
2023-02-25T02:07:43.790Z,3.5
2023-02-25T02:08:59.304Z,3.4
2023-02-25T02:09:41.065Z,3.4
2023-02-25T02:10:59.052Z,3.4
2023-02-25T02:11:41.115Z,3.4
2023-02-25T02:12:58.741Z,3.4
2023-02-25T02:13:41.230Z,3.5
2023-02-25T02:14:59.374Z,3.5
2023-02-25T02:15:41.336Z,3.4
2023-02-25T02:16:59.367Z,3.4
2023-02-25T02:17:46.374Z,3.4
2023-02-25T02:18:59.422Z,3.4
2023-02-25T02:19:41.568Z,3.4
2023-02-25T02:20:58.894Z,3.3
2023-02-25T02:21:46.127Z,3.4
2023-02-25T02:22:59.022Z,3.4
2023-02-25T02:23:41.782Z,3.4
2023-02-25T02:25:00.155Z,3.4
2023-02-25T02:25:41.928Z,3.3
2023-02-25T02:26:58.986Z,3.4
2023-02-25T02:27:46.068Z,3.3
2023-02-25T02:28:58.973Z,3.3
2023-02-25T02:29:42.131Z,3.3
2023-02-25T02:30:58.569Z,3.3
2023-02-25T02:31:42.346Z,3.3
2023-02-25T02:33:00.568Z,3.4
2023-02-25T02:33:42.354Z,3.4
2023-02-25T02:35:00.736Z,3.3
2023-02-25T02:35:42.520Z,3.3
2023-02-25T02:37:01.337Z,3.3
2023-02-25T02:37:44.180Z,3.2
2023-02-25T02:39:03.679Z,3.3
2023-02-25T02:39:42.639Z,3.4
2023-02-25T02:41:00.451Z,3.5
2023-02-25T02:41:42.760Z,3.3
2023-02-25T02:43:03.646Z,3.3
2023-02-25T02:43:42.840Z,3.3
2023-02-25T02:45:04.067Z,3.3
2023-02-25T02:45:43.073Z,3.3
2023-02-25T02:47:05.999Z,3.3
2023-02-25T02:47:46.521Z,3.3
2023-02-25T02:49:05.185Z,3.3
2023-02-25T02:49:43.214Z,3.3
2023-02-25T02:51:04.448Z,3.3
2023-02-25T02:51:43.326Z,3.4
2023-02-25T02:53:03.608Z,3.4
2023-02-25T02:53:43.462Z,3.3
2023-02-25T02:55:04.885Z,3.3
2023-02-25T02:55:43.563Z,3.3
2023-02-25T02:57:04.685Z,3.2
2023-02-25T02:57:53.347Z,3.2
2023-02-25T02:59:04.706Z,3.3
2023-02-25T02:59:43.803Z,3.4
2023-02-25T03:01:08.081Z,3.3
2023-02-25T03:01:43.929Z,3.4
2023-02-25T03:03:05.052Z,3.3
2023-02-25T03:03:44.075Z,3.2
2023-02-25T03:05:05.060Z,3.2
2023-02-25T03:05:44.100Z,3.3
2023-02-25T03:07:05.857Z,3.3
2023-02-25T03:07:51.462Z,3.3
2023-02-25T03:09:06.353Z,3.3
2023-02-25T03:09:44.319Z,3.3
2023-02-25T03:11:05.782Z,3.3
2023-02-25T03:11:44.456Z,3.2
2023-02-25T03:13:07.875Z,3.2
2023-02-25T03:13:44.553Z,3.3
2023-02-25T03:15:06.569Z,3.3
2023-02-25T03:15:44.958Z,3.4
2023-02-25T03:17:05.412Z,3.3
2023-02-25T03:17:51.854Z,3.3
2023-02-25T03:19:06.234Z,3.4
2023-02-25T03:19:44.887Z,3.4
2023-02-25T03:21:05.972Z,3.3
2023-02-25T03:21:45.110Z,3.5
2023-02-25T03:23:06.032Z,3.4
2023-02-25T03:23:45.232Z,3.5
2023-02-25T03:25:07.796Z,3.5
2023-02-25T03:25:45.346Z,3.3
2023-02-25T03:27:07.368Z,3.3
2023-02-25T03:27:55.842Z,3.3
2023-02-25T03:29:09.157Z,3.3
2023-02-25T03:29:45.681Z,3.3
2023-02-25T03:31:08.130Z,3.3
2023-02-25T03:31:46.078Z,3.4
2023-02-25T03:33:08.814Z,3.4
2023-02-25T03:33:45.981Z,3.4
2023-02-25T03:35:08.986Z,3.4
2023-02-25T03:35:46.152Z,3.4
2023-02-25T03:37:09.236Z,3.4
2023-02-25T03:37:55.091Z,3.4
2023-02-25T03:39:08.525Z,3.4
2023-02-25T03:39:46.636Z,3.4
2023-02-25T03:41:10.487Z,3.4
2023-02-25T03:41:46.335Z,3.3
2023-02-25T03:42:47.785Z,3.3
2023-02-25T03:43:46.378Z,3.3
2023-02-25T03:44:46.425Z,3.3
2023-02-25T03:45:49.330Z,3.3
2023-02-25T03:46:46.562Z,3.2
2023-02-25T03:47:56.605Z,3.3
2023-02-25T03:48:49.610Z,3.4
2023-02-25T03:49:46.768Z,3.4
2023-02-25T03:50:46.762Z,3.5
2023-02-25T03:51:50.463Z,3.5
2023-02-25T03:52:46.881Z,3.5
2023-02-25T03:53:46.946Z,3.3
2023-02-25T03:54:53.733Z,3.3
2023-02-25T03:55:47.183Z,3.3
2023-02-25T03:56:47.187Z,3.2
2023-02-25T03:57:54.933Z,3.2
2023-02-25T03:58:47.391Z,3.2
2023-02-25T03:59:47.378Z,3.3
2023-02-25T04:00:55.128Z,3.4
2023-02-25T04:01:47.530Z,3.3
2023-02-25T04:02:47.687Z,3.3
2023-02-25T04:03:55.943Z,3.3
2023-02-25T04:04:47.776Z,3.3
2023-02-25T04:05:47.681Z,3.3
2023-02-25T04:06:58.154Z,3.3
2023-02-25T04:07:47.823Z,3.3
2023-02-25T04:08:47.850Z,3.3
2023-02-25T04:09:58.696Z,3.3
2023-02-25T04:10:47.975Z,3.3
2023-02-25T04:11:48.025Z,3.3
2023-02-25T04:13:01.462Z,3.1
2023-02-25T04:13:48.139Z,3.1
2023-02-25T04:14:48.236Z,3
2023-02-25T04:16:03.633Z,3.2
2023-02-25T04:16:48.356Z,3.3
2023-02-25T04:17:48.418Z,3.3
2023-02-25T04:19:04.951Z,3.2
2023-02-25T04:19:48.567Z,3.2
2023-02-25T04:20:48.627Z,3.2
2023-02-25T04:22:07.258Z,3.1
2023-02-25T04:22:48.765Z,3.1
2023-02-25T04:23:48.812Z,3.2
2023-02-25T04:25:08.272Z,3.2
2023-02-25T04:25:48.903Z,3.2
2023-02-25T04:26:48.999Z,3.2
2023-02-25T04:28:14.844Z,3.2
2023-02-25T04:28:49.092Z,3.2
2023-02-25T04:29:49.181Z,3.1
2023-02-25T04:31:31.465Z,3.1
2023-02-25T04:31:49.475Z,3.2
2023-02-25T04:32:49.414Z,3.2
2023-02-25T04:33:49.405Z,3.2
2023-02-25T04:34:49.454Z,3.1
2023-02-25T04:35:49.496Z,3.1
2023-02-25T04:36:49.561Z,3.2
2023-02-25T04:37:49.612Z,3.1
2023-02-25T04:38:49.655Z,3.1
2023-02-25T04:39:49.735Z,3.2
2023-02-25T04:40:49.812Z,3.1
2023-02-25T04:41:49.843Z,3.1
2023-02-25T04:42:49.933Z,3.2
2023-02-25T04:43:49.939Z,3.2
2023-02-25T04:44:50.004Z,3.2
2023-02-25T04:45:50.058Z,3.3
2023-02-25T04:46:55.347Z,3.2
2023-02-25T04:47:50.121Z,3.2
2023-02-25T04:48:50.209Z,3.2
2023-02-25T04:49:50.251Z,3.1
2023-02-25T04:50:50.294Z,3.1
2023-02-25T04:51:50.353Z,3.2
2023-02-25T04:52:50.440Z,3.2
2023-02-25T04:53:50.468Z,3.3
2023-02-25T04:54:50.520Z,3.2
2023-02-25T04:55:50.601Z,3.1
2023-02-25T04:56:50.675Z,3
2023-02-25T04:57:50.714Z,3
2023-02-25T04:58:50.787Z,3.1
2023-02-25T04:59:50.869Z,3
2023-02-25T05:00:50.910Z,2.9
2023-02-25T05:01:50.989Z,2.9
2023-02-25T05:02:51.067Z,3
2023-02-25T05:03:51.095Z,3
2023-02-25T05:04:51.247Z,3.1
2023-02-25T05:05:51.227Z,3.1
2023-02-25T05:06:51.318Z,3.2
2023-02-25T05:07:51.370Z,3.1
2023-02-25T05:08:51.413Z,3.1
2023-02-25T05:09:51.472Z,3
2023-02-25T05:10:51.528Z,3
2023-02-25T05:11:51.590Z,3.1
2023-02-25T05:12:51.662Z,3.2
2023-02-25T05:13:51.681Z,3.1
2023-02-25T05:14:51.760Z,3.1
2023-02-25T05:15:51.846Z,3.1
2023-02-25T05:16:51.916Z,3.1
2023-02-25T05:17:51.947Z,3.1
2023-02-25T05:18:52.002Z,3.1
2023-02-25T05:19:52.026Z,3.1
2023-02-25T05:20:52.108Z,3
2023-02-25T05:21:52.172Z,3
2023-02-25T05:22:52.220Z,3
2023-02-25T05:23:52.296Z,3.1
2023-02-25T05:24:52.313Z,3.1
2023-02-25T05:25:52.367Z,3.1
2023-02-25T05:26:52.420Z,3
2023-02-25T05:27:52.487Z,3
2023-02-25T05:28:52.540Z,3
2023-02-25T05:29:52.645Z,2.9
2023-02-25T05:30:52.636Z,2.9
2023-02-25T05:31:52.818Z,3
2023-02-25T05:32:52.946Z,3
2023-02-25T05:33:52.872Z,3
2023-02-25T05:34:52.867Z,3
2023-02-25T05:35:52.905Z,3.2
2023-02-25T05:36:52.998Z,3.2
2023-02-25T05:37:53.015Z,3.1
2023-02-25T05:38:53.068Z,3.1
2023-02-25T05:39:53.102Z,3
2023-02-25T05:40:53.163Z,3.1
2023-02-25T05:41:53.218Z,3.1
2023-02-25T05:42:53.283Z,3
2023-02-25T05:43:53.326Z,3
2023-02-25T05:44:53.444Z,2.9
2023-02-25T05:45:53.437Z,3
2023-02-25T05:46:53.618Z,3
2023-02-25T05:47:53.587Z,3
2023-02-25T05:48:53.648Z,3
2023-02-25T05:49:53.694Z,3.1
2023-02-25T05:50:53.757Z,3
2023-02-25T05:51:53.857Z,3
2023-02-25T05:52:53.892Z,3
2023-02-25T05:53:53.901Z,3.1
2023-02-25T05:54:53.971Z,3.1
2023-02-25T05:55:54.060Z,3.1
2023-02-25T05:56:54.051Z,3
2023-02-25T05:57:54.127Z,3.1
2023-02-25T05:58:54.164Z,3
2023-02-25T05:59:54.222Z,3
2023-02-25T06:00:54.315Z,3
2023-02-25T06:01:54.379Z,3
2023-02-25T06:02:54.456Z,3
2023-02-25T06:03:54.480Z,3.1
2023-02-25T06:04:54.508Z,3
2023-02-25T06:05:54.539Z,3
2023-02-25T06:06:54.589Z,3
2023-02-25T06:07:54.638Z,3
2023-02-25T06:08:54.718Z,3
2023-02-25T06:09:54.748Z,3.1
2023-02-25T06:10:54.818Z,3
2023-02-25T06:11:54.935Z,3
2023-02-25T06:12:54.951Z,3
2023-02-25T06:13:54.962Z,3.1
2023-02-25T06:14:55.074Z,3.1
2023-02-25T06:15:55.117Z,3.1
2023-02-25T06:16:55.284Z,3.2
2023-02-25T06:17:55.251Z,3.2
2023-02-25T06:18:55.291Z,3.2
2023-02-25T06:19:55.327Z,3.2
2023-02-25T06:20:55.382Z,3.2
2023-02-25T06:21:55.461Z,3.2
2023-02-25T06:22:55.534Z,3.1
2023-02-25T06:23:55.584Z,3.1
2023-02-25T06:24:55.583Z,3.1
2023-02-25T06:25:55.656Z,3.1
2023-02-25T06:26:55.705Z,3.1
2023-02-25T06:27:55.806Z,3.1
2023-02-25T06:28:55.871Z,3.1
2023-02-25T06:29:57.324Z,3
2023-02-25T06:30:56.019Z,3.1
2023-02-25T06:31:56.124Z,3.2
2023-02-25T06:32:56.207Z,3.2
2023-02-25T06:33:56.165Z,3.2
2023-02-25T06:34:56.179Z,3.3
2023-02-25T06:35:56.283Z,3.4
2023-02-25T06:36:56.348Z,3.4
2023-02-25T06:37:56.397Z,3.3
2023-02-25T06:38:56.444Z,3.2
2023-02-25T06:39:56.500Z,3.2
2023-02-25T06:40:56.568Z,3.2
2023-02-25T06:41:56.587Z,3.2
2023-02-25T06:42:56.680Z,3.2
2023-02-25T06:43:56.733Z,3.1
2023-02-25T06:44:56.878Z,3.2
2023-02-25T06:45:56.928Z,3.1
2023-02-25T06:46:56.911Z,3.1
2023-02-25T06:47:57.002Z,3.2
2023-02-25T06:48:57.057Z,3.1
2023-02-25T06:50:07.822Z,3.2
2023-02-25T06:50:57.152Z,3.2
2023-02-25T06:51:57.186Z,3.2
2023-02-25T06:52:57.264Z,3.2
2023-02-25T06:53:57.293Z,3.3
2023-02-25T06:54:57.377Z,3.3
2023-02-25T06:56:07.428Z,3.3
2023-02-25T06:56:57.492Z,3.3
2023-02-25T06:57:57.583Z,3.3
2023-02-25T06:58:57.614Z,3.3
2023-02-25T06:59:57.654Z,3.2
2023-02-25T07:00:57.721Z,3.3
2023-02-25T07:02:15.745Z,3.3
2023-02-25T07:02:57.832Z,3.2
2023-02-25T07:03:57.911Z,3.2
2023-02-25T07:04:57.982Z,3.1
2023-02-25T07:05:58.009Z,3.2
2023-02-25T07:06:58.094Z,3.2
2023-02-25T07:08:09.490Z,3.3
2023-02-25T07:08:58.245Z,3.3
2023-02-25T07:09:58.309Z,3.3
2023-02-25T07:10:58.422Z,3.2
2023-02-25T07:11:58.430Z,3.2
2023-02-25T07:12:58.476Z,3.2
2023-02-25T07:14:08.552Z,3.2
2023-02-25T07:14:58.592Z,3.3
2023-02-25T07:15:58.683Z,3.3
2023-02-25T07:16:58.713Z,3.3
2023-02-25T07:17:58.751Z,3.3
2023-02-25T07:18:58.822Z,3.3
2023-02-25T07:20:04.827Z,3.3
2023-02-25T07:20:58.988Z,3.3
2023-02-25T07:22:01.527Z,3.2
2023-02-25T07:22:59.118Z,3.2
2023-02-25T07:24:01.460Z,3.3
2023-02-25T07:24:59.278Z,3.2
2023-02-25T07:26:10.815Z,3.1
2023-02-25T07:26:59.302Z,3.2
2023-02-25T07:28:11.231Z,3.2
2023-02-25T07:28:59.426Z,3.2
2023-02-25T07:30:11.990Z,3.2
2023-02-25T07:30:59.601Z,3.2
2023-02-25T07:32:08.586Z,3.3
2023-02-25T07:32:59.734Z,3.3
2023-02-25T07:34:15.842Z,3.3
2023-02-25T07:34:59.752Z,3.3
2023-02-25T07:36:15.546Z,3.3
2023-02-25T07:36:59.898Z,3.3
2023-02-25T07:38:06.812Z,3.3
2023-02-25T07:39:00.031Z,3.4
2023-02-25T07:40:00.131Z,3.3
2023-02-25T07:41:00.150Z,3.1
2023-02-25T07:42:00.202Z,3.1
2023-02-25T07:43:00.264Z,3.2
2023-02-25T07:44:03.423Z,3.2
2023-02-25T07:45:02.107Z,3.2
2023-02-25T07:46:00.555Z,3.2
2023-02-25T07:47:00.518Z,3.2
2023-02-25T07:48:00.599Z,3.2
2023-02-25T07:49:00.634Z,3.1
2023-02-25T07:50:01.468Z,3.2
2023-02-25T07:51:00.770Z,3.2
2023-02-25T07:52:00.881Z,3.2
2023-02-25T07:53:00.884Z,3.2
2023-02-25T07:54:01.027Z,3.3
2023-02-25T07:55:01.148Z,3.3
2023-02-25T07:56:04.975Z,3.3
2023-02-25T07:57:01.257Z,3.3
2023-02-25T07:58:01.288Z,3.3
2023-02-25T07:59:01.372Z,3.3
2023-02-25T08:00:01.436Z,3.2
2023-02-25T08:01:01.483Z,3.2
2023-02-25T08:02:06.266Z,3.3
2023-02-25T08:03:01.587Z,3.3
2023-02-25T08:04:01.648Z,3.3
2023-02-25T08:05:01.699Z,3.4
2023-02-25T08:06:01.761Z,3.4
2023-02-25T08:07:01.824Z,3.3
2023-02-25T08:08:04.066Z,3.3
2023-02-25T08:09:01.953Z,3.3
2023-02-25T08:10:02.002Z,3.4
2023-02-25T08:11:02.032Z,3.4
2023-02-25T08:12:02.120Z,3.5
2023-02-25T08:13:02.147Z,3.5
2023-02-25T08:14:04.975Z,3.4
2023-02-25T08:15:02.394Z,3.4
2023-02-25T08:16:02.473Z,3.4
2023-02-25T08:17:02.880Z,3.4
2023-02-25T08:18:02.414Z,3.4
2023-02-25T08:19:02.482Z,3.4
2023-02-25T08:20:02.697Z,3.4
2023-02-25T08:21:03.132Z,3.5
2023-02-25T08:22:04.490Z,3.5
2023-02-25T08:23:02.693Z,3.6
2023-02-25T08:24:02.852Z,3.6
2023-02-25T08:25:02.831Z,3.5
2023-02-25T08:26:02.877Z,3.5
2023-02-25T08:27:02.932Z,3.5
2023-02-25T08:28:03.137Z,3.6
2023-02-25T08:29:03.160Z,3.5
2023-02-25T08:30:04.251Z,3.6
2023-02-25T08:31:03.379Z,3.6
2023-02-25T08:32:12.026Z,3.6
2023-02-25T08:33:03.471Z,3.6
2023-02-25T08:34:09.306Z,3.5
2023-02-25T08:35:03.481Z,3.7
2023-02-25T08:36:03.580Z,3.8
2023-02-25T08:37:03.609Z,3.7
2023-02-25T08:38:10.490Z,3.6
2023-02-25T08:39:03.709Z,3.6
2023-02-25T08:40:05.224Z,3.7
2023-02-25T08:41:03.822Z,3.6
2023-02-25T08:42:03.862Z,3.6
2023-02-25T08:43:03.904Z,3.7
2023-02-25T08:44:06.173Z,3.8
2023-02-25T08:45:04.023Z,3.8
2023-02-25T08:46:04.130Z,3.8
2023-02-25T08:47:04.174Z,3.7
2023-02-25T08:48:11.037Z,3.8
2023-02-25T08:49:04.242Z,3.7
2023-02-25T08:50:04.303Z,3.8
2023-02-25T08:51:04.372Z,3.8
2023-02-25T08:52:04.465Z,3.8
2023-02-25T08:53:04.512Z,3.8
2023-02-25T08:54:04.518Z,3.9
2023-02-25T08:55:04.572Z,4
2023-02-25T08:56:04.937Z,4
2023-02-25T08:57:04.723Z,4
2023-02-25T08:58:04.749Z,4
2023-02-25T08:59:04.913Z,4
2023-02-25T09:00:05.905Z,3.9
2023-02-25T09:01:05.061Z,3.9
2023-02-25T09:02:14.235Z,3.8
2023-02-25T09:03:05.072Z,3.9
2023-02-25T09:04:05.157Z,3.9
2023-02-25T09:05:05.805Z,4
2023-02-25T09:06:10.245Z,4.1
2023-02-25T09:07:05.855Z,4
2023-02-25T09:08:05.415Z,3.9
2023-02-25T09:09:05.446Z,3.9
2023-02-25T09:10:05.498Z,3.8
2023-02-25T09:11:05.550Z,3.8
2023-02-25T09:12:05.629Z,3.8
2023-02-25T09:13:05.635Z,3.8
2023-02-25T09:14:05.732Z,3.6
2023-02-25T09:15:05.783Z,3.6
2023-02-25T09:16:10.871Z,3.5
2023-02-25T09:17:09.400Z,3.4
2023-02-25T09:18:05.949Z,3.3
2023-02-25T09:19:05.990Z,3.3
2023-02-25T09:20:11.467Z,3.2
2023-02-25T09:21:06.113Z,3.2
2023-02-25T09:22:06.203Z,3.2
2023-02-25T09:23:11.841Z,3.1
2023-02-25T09:24:06.324Z,3.1
2023-02-25T09:25:06.364Z,3.1
2023-02-25T09:26:11.651Z,3
2023-02-25T09:27:06.543Z,3.1
2023-02-25T09:28:06.610Z,3.2
2023-02-25T09:29:13.044Z,3.3
2023-02-25T09:30:06.657Z,3.3
2023-02-25T09:31:06.917Z,3.2
2023-02-25T09:32:31.438Z,3.2
2023-02-25T09:33:07.073Z,3.2
2023-02-25T09:34:06.947Z,3.3
2023-02-25T09:35:07.616Z,3.3
2023-02-25T09:42:09.450Z,3.4
2023-02-25T09:43:43.836Z,3.3
2023-02-25T09:44:07.763Z,3.4
2023-02-25T09:45:07.873Z,3.3
2023-02-25T09:46:07.954Z,3.3
2023-02-25T09:47:07.924Z,3.3
2023-02-25T09:48:08.038Z,3.3
2023-02-25T09:49:08.027Z,3.2
2023-02-25T09:50:37.428Z,3.3
2023-02-25T09:51:08.186Z,3.3
2023-02-25T09:52:08.420Z,3.3
2023-02-25T09:53:08.779Z,3.4
2023-02-25T09:54:12.734Z,3.4
2023-02-25T09:55:08.565Z,3.3
2023-02-25T09:56:31.577Z,3.4
2023-02-25T09:57:08.540Z,3.4
2023-02-25T09:58:08.595Z,3.4
2023-02-25T09:59:11.374Z,3.4
2023-02-25T10:00:08.736Z,3.5
2023-02-25T10:01:08.797Z,3.4
2023-02-25T10:02:24.257Z,3.4
2023-02-25T10:03:09.024Z,3.4
2023-02-25T10:04:17.988Z,3.5
2023-02-25T10:05:09.658Z,3.5
2023-02-25T10:06:09.068Z,3.5
2023-02-25T10:07:09.194Z,3.5
2023-02-25T10:08:11.954Z,3.5
2023-02-25T10:09:09.338Z,3.6
2023-02-25T10:10:12.831Z,3.6
2023-02-25T10:11:11.345Z,3.6
2023-02-25T10:12:14.723Z,3.5
2023-02-25T10:13:09.547Z,3.6
2023-02-25T10:14:35.122Z,3.5
2023-02-25T10:15:09.682Z,3.5
2023-02-25T10:16:09.733Z,3.5
2023-02-25T10:17:15.584Z,3.4
2023-02-25T10:18:09.846Z,3.5
2023-02-25T10:19:09.899Z,3.5
2023-02-25T10:20:13.907Z,3.6
2023-02-25T10:21:10.030Z,3.6
2023-02-25T10:22:11.087Z,3.7
2023-02-25T10:23:15.990Z,3.7
2023-02-25T10:24:10.211Z,3.7
2023-02-25T10:25:10.256Z,3.7
2023-02-25T10:26:15.866Z,3.8
2023-02-25T10:27:10.389Z,3.9
2023-02-25T10:28:17.976Z,4
2023-02-25T10:29:14.056Z,4.1
2023-02-25T10:30:17.659Z,4.3
2023-02-25T10:31:10.794Z,4.6
2023-02-25T10:32:15.647Z,5
2023-02-25T10:33:10.721Z,5
2023-02-25T10:34:10.785Z,4.9
2023-02-25T10:35:17.684Z,5
2023-02-25T10:36:10.893Z,5
2023-02-25T10:37:10.948Z,5
2023-02-25T10:38:15.914Z,5.1
2023-02-25T10:39:11.073Z,5.2
2023-02-25T10:40:11.214Z,5.2
2023-02-25T10:41:15.404Z,5.4
2023-02-25T10:42:11.235Z,5.4
2023-02-25T10:43:11.344Z,5.2
2023-02-25T10:44:27.915Z,5.3
2023-02-25T10:45:13.772Z,5.4
2023-02-25T10:46:11.597Z,5.3
2023-02-25T10:47:24.465Z,5.3
2023-02-25T10:48:12.347Z,5.3
2023-02-25T10:49:16.154Z,5.2
2023-02-25T10:50:12.583Z,5.1
2023-02-25T10:51:18.592Z,5.3
2023-02-25T10:52:11.796Z,5.5
2023-02-25T10:53:35.432Z,5.4
2023-02-25T10:54:12.034Z,5.4
2023-02-25T10:55:12.056Z,5.3
2023-02-25T10:56:36.505Z,5.3
2023-02-25T10:57:12.127Z,5.3
2023-02-25T10:58:12.172Z,5.5
2023-02-25T10:59:41.445Z,5.4
2023-02-25T11:00:12.319Z,5.3
2023-02-25T11:01:12.429Z,5.2
2023-02-25T11:02:43.009Z,5.1
2023-02-25T11:03:12.474Z,5.3
2023-02-25T11:04:12.534Z,5.8
2023-02-25T11:05:19.056Z,6
2023-02-25T11:06:12.847Z,6.2
2023-02-25T11:07:12.691Z,6
2023-02-25T11:08:12.736Z,6.1
2023-02-25T11:09:48.537Z,6.3
2023-02-25T11:10:13.080Z,6.4
2023-02-25T11:11:17.990Z,6
2023-02-25T11:12:12.965Z,5.6
2023-02-25T11:13:12.981Z,5.3
2023-02-25T11:14:13.309Z,5
2023-02-25T11:15:13.705Z,4.9
2023-02-25T11:16:13.187Z,4.9
2023-02-25T11:17:13.244Z,4.8
2023-02-25T11:18:13.333Z,4.8
2023-02-25T11:19:13.372Z,4.7
2023-02-25T11:20:13.390Z,4.5
2023-02-25T11:21:13.652Z,4.5
2023-02-25T11:22:13.515Z,4.5
2023-02-25T11:23:13.745Z,4.4
2023-02-25T11:24:13.582Z,4.4
2023-02-25T11:25:13.635Z,4.6
2023-02-25T11:26:13.694Z,4.7
2023-02-25T11:27:13.759Z,4.7
2023-02-25T11:28:13.794Z,4.9
2023-02-25T11:29:13.849Z,4.8
2023-02-25T11:30:13.907Z,4.6
2023-02-25T11:31:14.073Z,4.5
2023-02-25T11:32:14.197Z,4.6
2023-02-25T11:33:14.088Z,4.6
2023-02-25T11:34:14.144Z,4.6
2023-02-25T11:35:36.716Z,4.6
2023-02-25T11:36:14.207Z,4.5
2023-02-25T11:37:15.987Z,4.5
2023-02-25T11:38:14.278Z,4.6
2023-02-25T11:39:14.358Z,4.6
2023-02-25T11:40:14.439Z,4.7
2023-02-25T11:41:15.374Z,4.8
2023-02-25T11:42:14.552Z,4.9
2023-02-25T11:43:25.503Z,5.1
2023-02-25T11:44:14.619Z,5.3
2023-02-25T11:45:14.709Z,5.3
2023-02-25T11:46:14.799Z,5.3
2023-02-25T11:47:14.807Z,5.5
2023-02-25T11:48:14.900Z,5.6
2023-02-25T11:49:15.133Z,6
2023-02-25T11:50:14.992Z,6.8
2023-02-25T11:51:15.018Z,7.2
2023-02-25T11:52:15.079Z,6.7
2023-02-25T11:53:15.181Z,6.3
2023-02-25T11:54:15.173Z,6.4
2023-02-25T11:55:15.267Z,6.2
2023-02-25T11:56:15.284Z,5.7
2023-02-25T11:57:15.344Z,5.5
2023-02-25T11:58:15.390Z,5.6
2023-02-25T11:59:15.484Z,5.6
2023-02-25T12:00:15.498Z,5.6
2023-02-25T12:01:16.055Z,5.4
2023-02-25T12:02:15.616Z,5.4
2023-02-25T12:03:16.243Z,5.3
2023-02-25T12:04:15.766Z,5.3
2023-02-25T12:05:15.768Z,5.2
2023-02-25T12:06:15.879Z,5.2
2023-02-25T12:07:15.881Z,5.1
2023-02-25T12:08:15.955Z,4.9
2023-02-25T12:09:16.037Z,5
2023-02-25T12:10:16.149Z,4.9
2023-02-25T12:11:19.212Z,4.7
2023-02-25T12:12:16.239Z,4.4
2023-02-25T12:13:16.236Z,4.3
2023-02-25T12:14:16.371Z,4
2023-02-25T12:15:16.368Z,4
2023-02-25T12:16:16.453Z,3.9
2023-02-25T12:17:16.504Z,3.8
2023-02-25T12:18:16.526Z,3.7
2023-02-25T12:19:16.595Z,3.7
2023-02-25T12:20:16.605Z,3.8
2023-02-25T12:21:16.740Z,3.8
2023-02-25T12:22:16.741Z,4
2023-02-25T12:23:16.825Z,4.1
2023-02-25T12:24:17.178Z,4.1
2023-02-25T12:25:16.899Z,3.9
2023-02-25T12:26:16.961Z,3.9
2023-02-25T12:27:17.002Z,3.9
2023-02-25T12:28:17.090Z,4
2023-02-25T12:29:17.183Z,4.1
2023-02-25T12:30:17.201Z,4.1
2023-02-25T12:31:20.771Z,4.3
2023-02-25T12:32:17.353Z,4.2
2023-02-25T12:33:17.337Z,4.2
2023-02-25T12:34:17.432Z,4.4
2023-02-25T12:35:17.457Z,4.4
2023-02-25T12:36:17.498Z,4.6
2023-02-25T12:37:17.614Z,4.6
2023-02-25T12:38:17.642Z,4.4
2023-02-25T12:39:17.757Z,4.4
2023-02-25T12:40:17.827Z,4.4
2023-02-25T12:41:17.824Z,4.4
2023-02-25T12:42:17.881Z,4.6
2023-02-25T12:43:17.919Z,4.5
2023-02-25T12:44:17.995Z,4.4
2023-02-25T12:45:18.057Z,4.4
2023-02-25T12:46:18.127Z,4.5
2023-02-25T12:47:18.199Z,4.5
2023-02-25T12:48:18.258Z,4.5
2023-02-25T12:49:18.345Z,4.4
2023-02-25T12:50:18.366Z,4.5
2023-02-25T12:51:18.430Z,4.4
2023-02-25T12:52:18.496Z,4.5
2023-02-25T12:53:18.513Z,4.6
2023-02-25T12:54:18.638Z,4.6
2023-02-25T12:55:18.697Z,4.7
2023-02-25T12:56:18.708Z,4.6
2023-02-25T12:57:18.756Z,4.6
2023-02-25T12:58:18.802Z,4.5
2023-02-25T12:59:18.947Z,4.5
2023-02-25T13:00:18.912Z,4.6
2023-02-25T13:01:19.029Z,4.6
2023-02-25T13:02:19.115Z,4.7
2023-02-25T13:03:19.097Z,4.9
2023-02-25T13:04:19.151Z,5
2023-02-25T13:05:19.295Z,5
2023-02-25T13:06:19.275Z,4.9
2023-02-25T13:07:19.406Z,4.9
2023-02-25T13:08:19.411Z,4.8
2023-02-25T13:09:19.444Z,4.9
2023-02-25T13:10:19.533Z,5.1
2023-02-25T13:11:19.527Z,5.5
2023-02-25T13:12:19.608Z,6
2023-02-25T13:13:19.615Z,6.2
2023-02-25T13:14:19.704Z,6.5
2023-02-25T13:15:19.769Z,6.5
2023-02-25T13:16:19.856Z,6.8
2023-02-25T13:17:19.849Z,6.9
2023-02-25T13:18:20.008Z,7.1
2023-02-25T13:19:20.020Z,7.3
2023-02-25T13:20:20.049Z,7.4
2023-02-25T13:21:20.063Z,7.4
2023-02-25T13:22:20.130Z,7.1
2023-02-25T13:23:20.260Z,7.1
2023-02-25T13:24:20.281Z,6.7
2023-02-25T13:25:20.300Z,7
2023-02-25T13:26:50.582Z,7.2
2023-02-25T13:27:20.485Z,7.2
2023-02-25T13:28:20.499Z,7.4
2023-02-25T13:29:50.565Z,7.6
2023-02-25T13:30:20.605Z,7.3
2023-02-25T13:31:20.794Z,6.5
2023-02-25T13:32:50.761Z,5.8
2023-02-25T13:33:20.792Z,5.7
2023-02-25T13:34:20.831Z,5.5
2023-02-25T13:35:50.377Z,5
2023-02-25T13:36:20.933Z,5.1
2023-02-25T13:37:21.016Z,5.1
2023-02-25T13:38:51.989Z,5.4
2023-02-25T13:39:21.099Z,5.4
2023-02-25T13:40:21.183Z,5.6
2023-02-25T13:41:51.146Z,5.8
2023-02-25T13:42:21.353Z,5.8
2023-02-25T13:43:21.369Z,5.5
2023-02-25T13:44:50.975Z,5.7
2023-02-25T13:45:21.461Z,6.2
2023-02-25T13:46:21.517Z,6.1
2023-02-25T13:47:51.515Z,6.4
2023-02-25T13:48:21.664Z,6.7
2023-02-25T13:49:21.659Z,6.9
2023-02-25T13:50:51.282Z,7
2023-02-25T13:51:22.050Z,7
2023-02-25T13:52:21.837Z,7
2023-02-25T13:53:50.782Z,7.3
2023-02-25T13:54:21.935Z,7.2
2023-02-25T13:55:22.005Z,7.3
2023-02-25T13:56:51.863Z,7.1
2023-02-25T13:57:22.202Z,6.9
2023-02-25T13:58:22.211Z,7.3